Time;durP1;ratioP1;P1;durP2;ratioP2;P2;SDS_P1;SDS_P2;PMS_P1;PMS_P2;Temp;Humidity;BMP_temperature;BMP_pressure;BME280_temperature;BME280_humidity;BME280_pressure;Samples;Min_cycle;Max_cycle;Signal;HPM_P1;HPM_P2
2024/03/16 06:02:32;;;;;;;3.60;1.23;;;;;;;;;;4990934;23;20495;-78
2024/03/16 06:04:58;;;;;;;2.37;1.43;;;;;;;;;;4953211;29;20429;-77
2024/03/16 06:07:24;;;;;;;3.30;1.10;;;;;;;;;;4971819;29;20495;-77
2024/03/16 06:09:50;;;;;;;2.90;1.43;;;;;;;;;;4959557;29;20488;-77
2024/03/16 06:12:16;;;;;;;3.30;1.00;;;;;;;;;;4959873;29;20440;-77
2024/03/16 06:14:42;;;;;;;1.17;1.10;;;;;;;;;;4977542;29;20416;-79
2024/03/16 06:17:07;;;;;;;1.53;1.33;;;;;;;;;;4970572;29;20417;-79
2024/03/16 06:19:33;;;;;;;3.90;1.20;;;;;;;;;;4940134;29;20836;-79
2024/03/16 06:22:01;;;;;;;1.57;1.17;;;;;;;;;;4957267;29;20920;-79
2024/03/16 06:24:27;;;;;;;8.10;1.07;;;;;;;;;;4938240;29;20460;-79
2024/03/16 06:27:00;;;;;;;6.63;3.10;;;;;;;;;;4958188;29;20551;-79
2024/03/16 06:29:26;;;;;;;2.40;1.77;;;;;;;;;;4961589;29;20413;-80
2024/03/16 06:31:54;;;;;;;2.00;1.43;;;;;;;;;;4966230;29;20507;-79
2024/03/16 06:34:20;;;;;;;1.63;1.27;;;;;;;;;;4966411;28;20461;-79
2024/03/16 06:36:45;;;;;;;3.93;1.10;;;;;;;;;;4947616;29;20424;-79
2024/03/16 06:39:11;;;;;;;1.60;1.10;;;;;;;;;;4941931;29;20457;-79
2024/03/16 06:41:38;;;;;;;1.73;1.20;;;;;;;;;;4958420;29;20488;-79
2024/03/16 06:44:04;;;;;;;1.57;1.00;;;;;;;;;;4958082;29;20789;-79
2024/03/16 06:46:31;;;;;;;1.80;1.20;;;;;;;;;;4940923;29;20420;-79
2024/03/16 06:48:59;;;;;;;2.00;1.30;;;;;;;;;;4958411;29;20413;-79
2024/03/16 06:51:25;;;;;;;1.50;1.30;;;;;;;;;;4940933;29;20445;-79
2024/03/16 06:53:51;;;;;;;2.50;1.13;;;;;;;;;;4944547;28;20442;-79
2024/03/16 06:56:19;;;;;;;2.57;1.10;;;;;;;;;;4951835;28;20456;-79
2024/03/16 06:58:45;;;;;;;3.10;1.40;;;;;;;;;;4976382;28;20423;-80
2024/03/16 07:01:13;;;;;;;1.37;0.90;;;;;;;;;;4974346;28;20475;-79
2024/03/16 07:03:39;;;;;;;7.10;1.70;;;;;;;;;;4957279;29;20858;-79
2024/03/16 07:06:06;;;;;;;6.20;2.00;;;;;;;;;;4940716;29;20429;-79
2024/03/16 07:08:33;;;;;;;2.90;1.47;;;;;;;;;;4958291;29;20471;-79
2024/03/16 07:10:59;;;;;;;1.30;1.20;;;;;;;;;;4941446;29;20889;-79
2024/03/16 07:13:25;;;;;;;1.50;1.00;;;;;;;;;;4958588;29;20935;-79
2024/03/16 07:15:51;;;;;;;3.90;1.20;;;;;;;;;;4958293;29;20823;-80
2024/03/16 07:18:17;;;;;;;2.37;1.40;;;;;;;;;;4958685;29;20442;-79
2024/03/16 07:20:43;;;;;;;1.03;0.97;;;;;;;;;;4958593;29;20432;-79
2024/03/16 07:23:09;;;;;;;8.93;2.17;;;;;;;;;;4939009;29;20477;-80
2024/03/16 07:25:35;;;;;;;2.23;1.33;;;;;;;;;;4957880;29;20508;-79
2024/03/16 07:28:01;;;;;;;1.80;1.10;;;;;;;;;;4940730;29;20460;-79
2024/03/16 07:30:28;;;;;;;3.30;1.37;;;;;;;;;;4941158;29;20504;-80
2024/03/16 07:32:54;;;;;;;3.57;1.50;;;;;;;;;;4943126;29;20939;-79
2024/03/16 07:35:20;;;;;;;2.43;1.33;;;;;;;;;;4959640;29;20905;-79
2024/03/16 07:37:45;;;;;;;1.97;1.07;;;;;;;;;;4940671;29;20423;-80
2024/03/16 07:40:15;;;;;;;3.27;1.40;;;;;;;;;;4958071;29;20747;-79
2024/03/16 07:42:44;;;;;;;2.40;1.57;;;;;;;;;;4958085;29;20420;-79
2024/03/16 07:45:10;;;;;;;1.77;1.40;;;;;;;;;;4957913;29;20412;-79
2024/03/16 07:47:36;;;;;;;1.73;1.27;;;;;;;;;;4956721;28;20475;-80
2024/03/16 07:50:03;;;;;;;2.23;1.40;;;;;;;;;;4958527;29;20480;-80
2024/03/16 07:52:32;;;;;;;3.80;2.03;;;;;;;;;;4957930;29;20488;-80
2024/03/16 07:54:59;;;;;;;3.40;1.50;;;;;;;;;;4940449;29;20452;-80
2024/03/16 07:57:27;;;;;;;1.33;1.03;;;;;;;;;;4940707;29;20929;-80
2024/03/16 07:59:53;;;;;;;3.17;1.30;;;;;;;;;;4957622;29;20449;-79
2024/03/16 08:02:19;;;;;;;5.90;1.50;;;;;;;;;;4958058;29;20449;-80
2024/03/16 08:04:45;;;;;;;2.40;1.37;;;;;;;;;;4929114;29;20437;-80
2024/03/16 08:07:12;;;;;;;1.40;1.30;;;;;;;;;;4938326;29;20464;-80
2024/03/16 08:09:38;;;;;;;3.70;2.27;;;;;;;;;;4921753;29;20440;-79
2024/03/16 08:12:04;;;;;;;7.20;2.60;;;;;;;;;;4921731;29;20501;-80
2024/03/16 08:14:34;;;;;;;4.80;1.60;;;;;;;;;;4921843;29;20835;-80
2024/03/16 08:17:03;;;;;;;2.70;1.77;;;;;;;;;;4938799;29;20425;-80
2024/03/16 08:19:29;;;;;;;2.40;1.30;;;;;;;;;;4939009;29;20437;-79
2024/03/16 08:21:55;;;;;;;4.80;1.50;;;;;;;;;;4929386;29;20445;-80
2024/03/16 08:24:21;;;;;;;5.57;2.57;;;;;;;;;;4936049;29;20481;-80
2024/03/16 08:26:47;;;;;;;4.13;1.83;;;;;;;;;;4937087;29;20469;-80
2024/03/16 08:29:13;;;;;;;5.33;1.87;;;;;;;;;;4928033;29;20441;-79
2024/03/16 08:31:39;;;;;;;3.03;1.70;;;;;;;;;;4922076;29;20449;-79
2024/03/16 08:34:05;;;;;;;2.57;1.83;;;;;;;;;;4944991;29;20426;-79
2024/03/16 08:36:31;;;;;;;2.30;1.57;;;;;;;;;;4945315;29;20449;-80
2024/03/16 08:38:57;;;;;;;4.87;1.53;;;;;;;;;;4927869;29;20426;-79
2024/03/16 08:41:23;;;;;;;5.70;2.07;;;;;;;;;;4944800;29;20433;-79
2024/03/16 08:43:49;;;;;;;3.83;1.80;;;;;;;;;;4945590;29;20890;-80
2024/03/16 08:46:15;;;;;;;2.23;1.70;;;;;;;;;;4945160;29;20413;-79
2024/03/16 08:48:41;;;;;;;2.37;1.60;;;;;;;;;;4926913;29;20504;-79
2024/03/16 08:51:07;;;;;;;7.33;1.57;;;;;;;;;;4944028;29;20438;-79
2024/03/16 08:53:33;;;;;;;1.70;1.37;;;;;;;;;;4950038;28;20924;-80
2024/03/16 08:56:01;;;;;;;3.87;1.70;;;;;;;;;;4966859;28;20424;-80
2024/03/16 08:58:27;;;;;;;6.33;1.97;;;;;;;;;;4946360;29;20421;-80
2024/03/16 09:00:53;;;;;;;2.70;1.10;;;;;;;;;;4945595;29;20512;-80
2024/03/16 09:03:20;;;;;;;1.87;1.40;;;;;;;;;;4941884;29;20432;-78
2024/03/16 09:05:46;;;;;;;2.40;1.00;;;;;;;;;;4959811;29;20413;-78
2024/03/16 09:08:12;;;;;;;8.10;1.10;;;;;;;;;;4961998;29;20467;-78
2024/03/16 09:10:38;;;;;;;2.20;1.10;;;;;;;;;;4962936;29;20433;-78
2024/03/16 09:13:04;;;;;;;1.17;0.80;;;;;;;;;;4962542;29;20817;-78
2024/03/16 09:15:30;;;;;;;4.00;1.20;;;;;;;;;;4962535;29;20444;-78
2024/03/16 09:17:56;;;;;;;1.10;1.00;;;;;;;;;;4945448;29;20424;-78
2024/03/16 09:20:22;;;;;;;1.57;1.10;;;;;;;;;;4945403;29;21004;-78
2024/03/16 09:22:49;;;;;;;0.87;0.80;;;;;;;;;;4962700;29;20420;-78
2024/03/16 09:25:15;;;;;;;1.60;1.00;;;;;;;;;;4961920;29;20428;-79
2024/03/16 09:27:41;;;;;;;1.53;0.80;;;;;;;;;;4954166;29;20461;-77
2024/03/16 09:30:08;;;;;;;1.27;1.00;;;;;;;;;;4941167;29;20436;-78
2024/03/16 09:32:36;;;;;;;3.37;1.20;;;;;;;;;;4943152;29;20496;-77
2024/03/16 09:35:06;;;;;;;1.27;1.17;;;;;;;;;;4941759;29;20421;-78
2024/03/16 09:37:32;;;;;;;3.80;1.00;;;;;;;;;;4942208;29;20421;-77
2024/03/16 09:39:58;;;;;;;1.87;1.00;;;;;;;;;;4924046;29;20436;-78
2024/03/16 09:42:24;;;;;;;3.20;1.23;;;;;;;;;;4938588;29;20552;-78
2024/03/16 09:44:50;;;;;;;5.77;1.43;;;;;;;;;;4941726;29;20428;-78
2024/03/16 09:47:16;;;;;;;3.90;1.10;;;;;;;;;;4942501;29;20481;-78
2024/03/16 09:49:42;;;;;;;1.67;1.27;;;;;;;;;;4941760;29;20417;-78
2024/03/16 09:52:13;;;;;;;3.37;1.67;;;;;;;;;;4924588;29;20445;-78
2024/03/16 09:54:40;;;;;;;1.60;0.93;;;;;;;;;;4942436;29;20418;-78
2024/03/16 09:57:09;;;;;;;1.23;1.17;;;;;;;;;;4940151;29;20419;-77
2024/03/16 09:59:36;;;;;;;1.60;0.90;;;;;;;;;;4938939;29;20418;-78
2024/03/16 10:02:01;;;;;;;3.07;0.90;;;;;;;;;;4939803;29;20455;-78
2024/03/16 10:04:27;;;;;;;1.23;1.10;;;;;;;;;;4939965;29;20474;-78
2024/03/16 10:06:53;;;;;;;1.63;0.90;;;;;;;;;;4940294;29;20556;-78
2024/03/16 10:09:23;;;;;;;1.90;1.00;;;;;;;;;;4941884;29;20422;-78
2024/03/16 10:11:49;;;;;;;1.10;0.90;;;;;;;;;;4940369;29;20429;-78
2024/03/16 10:14:15;;;;;;;2.60;1.20;;;;;;;;;;4924097;29;20497;-77
2024/03/16 10:16:41;;;;;;;3.20;1.00;;;;;;;;;;4923900;29;20907;-78
2024/03/16 10:19:10;;;;;;;3.60;1.20;;;;;;;;;;4949453;29;20409;-83
2024/03/16 10:21:36;;;;;;;0.90;0.80;;;;;;;;;;4945615;29;20850;-76
2024/03/16 10:24:02;;;;;;;1.40;1.07;;;;;;;;;;4954131;29;20409;-77
2024/03/16 10:26:32;;;;;;;1.53;1.03;;;;;;;;;;4958994;29;20592;-78
2024/03/16 10:28:59;;;;;;;2.73;1.03;;;;;;;;;;4940454;29;20421;-76
2024/03/16 10:31:26;;;;;;;2.07;1.03;;;;;;;;;;4939981;29;20481;-76
2024/03/16 10:33:53;;;;;;;1.77;0.90;;;;;;;;;;4944094;29;20414;-76
2024/03/16 10:36:18;;;;;;;5.70;0.90;;;;;;;;;;4957440;29;20409;-77
2024/03/16 10:38:45;;;;;;;1.00;0.90;;;;;;;;;;4958324;29;20408;-77
2024/03/16 10:41:16;;;;;;;2.60;1.30;;;;;;;;;;4942416;29;20437;-77
2024/03/16 10:43:43;;;;;;;1.60;1.30;;;;;;;;;;4958764;29;20423;-77
2024/03/16 10:46:09;;;;;;;2.10;0.90;;;;;;;;;;4946704;29;20429;-76
2024/03/16 10:48:38;;;;;;;1.47;1.00;;;;;;;;;;4939429;29;20468;-77
2024/03/16 10:51:07;;;;;;;0.70;0.60;;;;;;;;;;4939820;29;20457;-76
2024/03/16 10:53:34;;;;;;;7.03;0.93;;;;;;;;;;4939918;29;20546;-77
2024/03/16 10:56:01;;;;;;;1.37;0.80;;;;;;;;;;4953705;28;20455;-77
2024/03/16 10:58:28;;;;;;;1.43;0.83;;;;;;;;;;4942500;29;20488;-77
2024/03/16 11:01:02;;;;;;;0.90;0.80;;;;;;;;;;4939716;29;20457;-76
2024/03/16 11:03:31;;;;;;;0.70;0.60;;;;;;;;;;4957759;29;20443;-77
2024/03/16 11:06:10;;;;;;;2.10;0.70;;;;;;;;;;4940130;29;20427;-77
2024/03/16 11:08:41;;;;;;;0.70;0.60;;;;;;;;;;4938908;29;20843;-77
2024/03/16 11:11:08;;;;;;;1.53;0.80;;;;;;;;;;4932619;29;20452;-77
2024/03/16 11:13:34;;;;;;;2.03;1.10;;;;;;;;;;4938922;29;20449;-77
2024/03/16 11:16:00;;;;;;;2.10;1.40;;;;;;;;;;4938969;29;20421;-76
2024/03/16 11:18:28;;;;;;;1.80;1.20;;;;;;;;;;4923859;29;20508;-76
2024/03/16 11:20:55;;;;;;;1.70;0.87;;;;;;;;;;4939758;29;20434;-76
2024/03/16 11:23:21;;;;;;;1.47;0.90;;;;;;;;;;4940771;29;20875;-77
2024/03/16 11:25:48;;;;;;;2.07;1.40;;;;;;;;;;4951283;29;20416;-76
2024/03/16 11:28:15;;;;;;;2.03;0.80;;;;;;;;;;4960756;29;20528;-76
2024/03/16 11:30:41;;;;;;;1.00;0.87;;;;;;;;;;4960853;29;20645;-76
2024/03/16 11:33:16;;;;;;;4.97;1.00;;;;;;;;;;4959355;29;20761;-76
2024/03/16 11:35:42;;;;;;;1.23;0.80;;;;;;;;;;4950666;29;20492;-76
2024/03/16 11:38:12;;;;;;;1.73;1.10;;;;;;;;;;4959354;29;20421;-76
2024/03/16 11:40:41;;;;;;;2.80;1.10;;;;;;;;;;4960837;29;20443;-76
2024/03/16 11:43:09;;;;;;;2.50;1.20;;;;;;;;;;4944555;29;20483;-76
2024/03/16 11:45:36;;;;;;;5.40;1.67;;;;;;;;;;4961267;29;20413;-75
2024/03/16 11:48:05;;;;;;;2.73;1.80;;;;;;;;;;4939128;29;20471;-75
2024/03/16 11:50:33;;;;;;;1.97;1.00;;;;;;;;;;4958444;29;20429;-75
2024/03/16 11:52:59;;;;;;;1.20;0.83;;;;;;;;;;4940964;29;20924;-75
2024/03/16 11:55:26;;;;;;;1.43;1.00;;;;;;;;;;4958956;29;20467;-75
2024/03/16 11:57:52;;;;;;;3.77;0.80;;;;;;;;;;4958002;29;20459;-74
2024/03/16 12:00:18;;;;;;;1.10;0.90;;;;;;;;;;4956389;29;20423;-75
2024/03/16 12:02:45;;;;;;;1.87;1.10;;;;;;;;;;4940778;29;20434;-75
2024/03/16 12:05:15;;;;;;;1.83;0.90;;;;;;;;;;4951395;29;20424;-75
2024/03/16 12:07:44;;;;;;;0.80;0.80;;;;;;;;;;4954495;29;21033;-75
2024/03/16 12:10:11;;;;;;;1.33;1.00;;;;;;;;;;4939395;29;20464;-75
2024/03/16 12:12:37;;;;;;;1.40;1.37;;;;;;;;;;4958472;29;20514;-75
2024/03/16 12:15:09;;;;;;;1.13;1.03;;;;;;;;;;4941152;29;20451;-76
2024/03/16 12:17:37;;;;;;;1.60;1.00;;;;;;;;;;4957225;29;20556;-76
2024/03/16 12:20:05;;;;;;;3.07;0.90;;;;;;;;;;4942186;29;20458;-76
2024/03/16 12:22:31;;;;;;;2.07;0.80;;;;;;;;;;4956557;29;20462;-76
2024/03/16 12:24:57;;;;;;;1.23;1.00;;;;;;;;;;4940236;29;20505;-76
2024/03/16 12:27:23;;;;;;;2.97;1.10;;;;;;;;;;4959156;29;20530;-76
2024/03/16 12:29:49;;;;;;;2.17;1.03;;;;;;;;;;4959545;29;20417;-77
2024/03/16 12:32:15;;;;;;;1.40;1.30;;;;;;;;;;4958295;28;20436;-77
2024/03/16 12:34:41;;;;;;;1.40;1.03;;;;;;;;;;4956330;29;20425;-77
2024/03/16 12:37:08;;;;;;;1.77;1.73;;;;;;;;;;4948545;29;20430;-77
2024/03/16 12:39:34;;;;;;;1.07;1.07;;;;;;;;;;4937336;29;20451;-77
2024/03/16 12:42:00;;;;;;;1.10;0.90;;;;;;;;;;4936528;29;20433;-77
2024/03/16 12:44:26;;;;;;;5.23;0.87;;;;;;;;;;4936984;29;20424;-77
2024/03/16 12:46:52;;;;;;;1.90;0.90;;;;;;;;;;4936904;29;20406;-77
2024/03/16 12:49:18;;;;;;;1.93;1.10;;;;;;;;;;4925521;29;20433;-77
2024/03/16 12:51:45;;;;;;;1.10;0.90;;;;;;;;;;4957002;29;20596;-77
2024/03/16 12:54:11;;;;;;;0.70;0.70;;;;;;;;;;4957408;29;20476;-77
2024/03/16 12:56:40;;;;;;;1.33;0.97;;;;;;;;;;4959640;28;20435;-77
2024/03/16 12:59:06;;;;;;;1.87;1.10;;;;;;;;;;4969137;28;20439;-77
2024/03/16 13:01:32;;;;;;;5.83;1.10;;;;;;;;;;4974905;28;20443;-77
2024/03/16 13:03:59;;;;;;;1.90;1.00;;;;;;;;;;4958414;28;20516;-77
2024/03/16 13:06:26;;;;;;;2.30;1.00;;;;;;;;;;4933984;29;20822;-77
2024/03/16 13:08:51;;;;;;;3.23;1.10;;;;;;;;;;4941980;29;20478;-77
2024/03/16 13:11:18;;;;;;;1.57;1.00;;;;;;;;;;4940543;29;20437;-77
2024/03/16 13:13:44;;;;;;;1.07;1.00;;;;;;;;;;4939864;29;20406;-77
2024/03/16 13:16:10;;;;;;;2.10;1.00;;;;;;;;;;4940212;29;20612;-77
2024/03/16 13:18:36;;;;;;;1.23;1.13;;;;;;;;;;4923152;29;20425;-77
2024/03/16 13:21:04;;;;;;;6.70;1.07;;;;;;;;;;4940432;29;20445;-77
2024/03/16 13:23:30;;;;;;;2.43;1.30;;;;;;;;;;4949356;29;20421;-77
2024/03/16 13:25:55;;;;;;;1.13;0.97;;;;;;;;;;4935643;29;20505;-76
2024/03/16 13:28:22;;;;;;;2.00;1.63;;;;;;;;;;4919141;29;20468;-76
2024/03/16 13:30:51;;;;;;;2.27;1.27;;;;;;;;;;4919654;29;20436;-77
2024/03/16 13:33:17;;;;;;;1.40;1.00;;;;;;;;;;4919589;29;20417;-77
2024/03/16 13:35:43;;;;;;;1.20;1.10;;;;;;;;;;4936902;29;20424;-76
2024/03/16 13:38:11;;;;;;;2.00;1.60;;;;;;;;;;4935758;29;20414;-77
2024/03/16 13:40:37;;;;;;;1.20;1.07;;;;;;;;;;4917792;29;20445;-76
2024/03/16 13:43:03;;;;;;;2.20;1.33;;;;;;;;;;4934845;29;20425;-77
2024/03/16 13:45:40;;;;;;;1.00;1.00;;;;;;;;;;4941712;29;20466;-77
2024/03/16 13:48:07;;;;;;;3.17;1.30;;;;;;;;;;4944673;29;20975;-76
2024/03/16 13:50:33;;;;;;;2.50;1.20;;;;;;;;;;4938381;29;20444;-77
2024/03/16 13:52:59;;;;;;;1.97;1.30;;;;;;;;;;4921886;29;20923;-77
2024/03/16 13:55:27;;;;;;;4.07;1.30;;;;;;;;;;4921644;29;20425;-77
2024/03/16 13:57:53;;;;;;;1.67;1.13;;;;;;;;;;4921985;29;20508;-77
2024/03/16 14:00:19;;;;;;;2.60;1.40;;;;;;;;;;4935325;29;20459;-77
2024/03/16 14:02:46;;;;;;;1.67;1.40;;;;;;;;;;4940529;29;20468;-77
2024/03/16 14:05:13;;;;;;;2.87;1.40;;;;;;;;;;4957876;29;20420;-77
2024/03/16 14:07:39;;;;;;;4.50;1.63;;;;;;;;;;4958777;29;20462;-77
2024/03/16 14:10:06;;;;;;;2.57;1.20;;;;;;;;;;4941821;29;20595;-77
2024/03/16 14:12:32;;;;;;;2.50;1.67;;;;;;;;;;4958788;29;20429;-77
2024/03/16 14:15:03;;;;;;;3.20;1.50;;;;;;;;;;4940704;29;20426;-77
2024/03/16 14:17:29;;;;;;;1.33;1.03;;;;;;;;;;4937882;29;20500;-77
2024/03/16 14:19:55;;;;;;;2.30;1.47;;;;;;;;;;4938578;29;20487;-77
2024/03/16 14:22:22;;;;;;;1.50;1.40;;;;;;;;;;4942948;29;20441;-76
2024/03/16 14:24:51;;;;;;;1.60;1.30;;;;;;;;;;4926937;29;20430;-77
2024/03/16 14:27:18;;;;;;;2.00;1.30;;;;;;;;;;4944059;29;20462;-77
2024/03/16 14:29:44;;;;;;;1.10;1.07;;;;;;;;;;4958504;29;20508;-77
2024/03/16 14:32:10;;;;;;;1.07;1.00;;;;;;;;;;4955198;29;20468;-76
2024/03/16 14:34:37;;;;;;;2.00;1.20;;;;;;;;;;4957250;29;20496;-78
2024/03/16 14:37:05;;;;;;;1.10;0.90;;;;;;;;;;4939618;29;20448;-77
2024/03/16 14:39:31;;;;;;;0.97;0.83;;;;;;;;;;4957086;29;20656;-77
2024/03/16 14:41:58;;;;;;;1.40;1.20;;;;;;;;;;4947527;29;20450;-77
2024/03/16 14:44:24;;;;;;;0.80;0.80;;;;;;;;;;4952090;29;20433;-77
2024/03/16 14:46:53;;;;;;;1.97;0.90;;;;;;;;;;4956238;29;20836;-77
2024/03/16 14:49:20;;;;;;;1.00;0.90;;;;;;;;;;4956517;29;20495;-77
2024/03/16 14:51:46;;;;;;;0.93;0.90;;;;;;;;;;4956273;29;20432;-77
2024/03/16 14:54:12;;;;;;;1.00;0.90;;;;;;;;;;4955821;29;20416;-77
2024/03/16 14:56:38;;;;;;;1.20;0.90;;;;;;;;;;4947514;28;20433;-77
2024/03/16 14:59:04;;;;;;;2.50;1.23;;;;;;;;;;4947436;28;20456;-77
2024/03/16 15:01:31;;;;;;;0.97;0.87;;;;;;;;;;4935451;29;20481;-77
2024/03/16 15:03:58;;;;;;;1.30;1.03;;;;;;;;;;4937200;29;20414;-76
2024/03/16 15:06:24;;;;;;;1.60;1.13;;;;;;;;;;4936413;29;20418;-77
2024/03/16 15:08:50;;;;;;;5.07;1.00;;;;;;;;;;4936050;29;20499;-75
2024/03/16 15:11:16;;;;;;;2.33;1.13;;;;;;;;;;4936818;29;20455;-76
2024/03/16 15:13:42;;;;;;;1.03;0.83;;;;;;;;;;4936751;29;20406;-76
2024/03/16 15:16:08;;;;;;;2.40;1.03;;;;;;;;;;4935804;29;20777;-76
2024/03/16 15:18:34;;;;;;;2.30;1.10;;;;;;;;;;4919386;29;20509;-76
2024/03/16 15:21:00;;;;;;;1.17;1.13;;;;;;;;;;4936506;29;20437;-76
2024/03/16 15:23:26;;;;;;;1.20;1.10;;;;;;;;;;4920950;29;20511;-77
2024/03/16 15:26:04;;;;;;;1.63;1.37;;;;;;;;;;4936218;29;20525;-78
2024/03/16 15:28:36;;;;;;;3.13;1.03;;;;;;;;;;4949569;29;20471;-76
2024/03/16 15:31:02;;;;;;;1.40;1.17;;;;;;;;;;4955653;29;20437;-76
2024/03/16 15:33:28;;;;;;;1.00;0.90;;;;;;;;;;4937838;29;20429;-76
2024/03/16 15:35:55;;;;;;;0.87;0.77;;;;;;;;;;4937612;29;20472;-76
2024/03/16 15:38:21;;;;;;;2.80;1.43;;;;;;;;;;4926281;29;20429;-76
2024/03/16 15:40:47;;;;;;;1.17;1.00;;;;;;;;;;4919195;29;20457;-76
2024/03/16 15:43:13;;;;;;;1.93;0.97;;;;;;;;;;4935785;29;20421;-76
2024/03/16 15:45:39;;;;;;;1.07;1.00;;;;;;;;;;4931084;29;20435;-76
2024/03/16 15:48:06;;;;;;;2.37;1.33;;;;;;;;;;4954845;29;20823;-76
2024/03/16 15:50:31;;;;;;;1.60;1.17;;;;;;;;;;4955110;29;20860;-76
2024/03/16 15:52:58;;;;;;;1.70;1.00;;;;;;;;;;4922364;29;20429;-76
2024/03/16 15:55:24;;;;;;;1.70;0.90;;;;;;;;;;4941912;29;20475;-76
2024/03/16 15:57:50;;;;;;;2.43;1.40;;;;;;;;;;4954735;29;20428;-76
2024/03/16 16:00:19;;;;;;;1.43;1.10;;;;;;;;;;4954731;29;20417;-76
2024/03/16 16:02:45;;;;;;;1.00;0.90;;;;;;;;;;4937598;29;20440;-76
2024/03/16 16:05:12;;;;;;;1.57;1.00;;;;;;;;;;4939687;29;20425;-76
2024/03/16 16:07:39;;;;;;;1.00;0.90;;;;;;;;;;4935226;29;20457;-76
2024/03/16 16:10:05;;;;;;;2.27;1.30;;;;;;;;;;4935373;29;20471;-76
2024/03/16 16:12:31;;;;;;;3.37;1.20;;;;;;;;;;4939725;29;20512;-76
2024/03/16 16:14:57;;;;;;;1.33;1.20;;;;;;;;;;4954179;29;20516;-76
2024/03/16 16:17:23;;;;;;;3.70;1.20;;;;;;;;;;4949364;29;20432;-77
2024/03/16 16:19:49;;;;;;;4.27;1.30;;;;;;;;;;4954234;29;20506;-76
2024/03/16 16:22:15;;;;;;;1.87;1.50;;;;;;;;;;4954242;29;20959;-76
2024/03/16 16:24:41;;;;;;;2.63;1.43;;;;;;;;;;4940948;29;20425;-76
2024/03/16 16:27:08;;;;;;;1.33;1.30;;;;;;;;;;4953885;29;20948;-77
2024/03/16 16:29:34;;;;;;;2.27;1.40;;;;;;;;;;4954169;29;20520;-76
2024/03/16 16:32:01;;;;;;;1.70;1.33;;;;;;;;;;4945659;29;20961;-76
2024/03/16 16:34:27;;;;;;;1.73;1.70;;;;;;;;;;4935118;29;20429;-76
2024/03/16 16:36:53;;;;;;;6.43;1.80;;;;;;;;;;4934899;29;21049;-76
2024/03/16 16:39:19;;;;;;;2.00;1.60;;;;;;;;;;4935198;29;20414;-76
2024/03/16 16:41:47;;;;;;;1.90;1.80;;;;;;;;;;4946702;29;20944;-77
2024/03/16 16:44:14;;;;;;;1.90;1.60;;;;;;;;;;4954057;29;20421;-77
2024/03/16 16:46:40;;;;;;;2.10;1.70;;;;;;;;;;4922774;29;20838;-76
2024/03/16 16:49:07;;;;;;;2.20;1.70;;;;;;;;;;4917838;29;20601;-78
2024/03/16 16:51:33;;;;;;;2.10;1.70;;;;;;;;;;4922631;29;20449;-76
2024/03/16 16:54:03;;;;;;;2.03;1.93;;;;;;;;;;4936833;29;20420;-76
2024/03/16 16:56:29;;;;;;;2.30;1.90;;;;;;;;;;4954995;29;20428;-79
2024/03/16 16:58:55;;;;;;;3.10;1.93;;;;;;;;;;4954782;28;20575;-76
2024/03/16 17:01:21;;;;;;;6.43;2.60;;;;;;;;;;4947772;28;20539;-76
2024/03/16 17:03:47;;;;;;;2.43;1.80;;;;;;;;;;4953701;29;20424;-77
2024/03/16 17:06:14;;;;;;;1.83;1.73;;;;;;;;;;4952192;29;20421;-77
2024/03/16 17:08:41;;;;;;;2.23;1.77;;;;;;;;;;4944662;29;20469;-77
2024/03/16 17:11:12;;;;;;;9.03;2.20;;;;;;;;;;4952811;28;20507;-77
2024/03/16 17:13:40;;;;;;;5.40;2.50;;;;;;;;;;4956110;28;20427;-79
2024/03/16 17:16:06;;;;;;;4.20;2.93;;;;;;;;;;4951659;28;20469;-77
2024/03/16 17:18:32;;;;;;;4.10;2.27;;;;;;;;;;4919568;29;20422;-77
2024/03/16 17:20:58;;;;;;;4.93;3.17;;;;;;;;;;4940663;29;20441;-77
2024/03/16 17:23:24;;;;;;;2.77;2.50;;;;;;;;;;4923303;29;20513;-77
2024/03/16 17:25:50;;;;;;;4.63;3.33;;;;;;;;;;4939763;29;20454;-77
2024/03/16 17:28:16;;;;;;;4.40;3.07;;;;;;;;;;4922784;29;20469;-77
2024/03/16 17:30:42;;;;;;;4.60;2.87;;;;;;;;;;4941261;29;20437;-74
2024/03/16 17:33:08;;;;;;;4.10;3.20;;;;;;;;;;4967593;28;20420;-76
2024/03/16 17:35:36;;;;;;;5.60;3.30;;;;;;;;;;4958061;28;20424;-74
2024/03/16 17:38:10;;;;;;;8.43;3.37;;;;;;;;;;4957450;29;20425;-73
2024/03/16 17:40:36;;;;;;;5.20;2.90;;;;;;;;;;4932568;29;20808;-75
2024/03/16 17:43:02;;;;;;;4.63;3.47;;;;;;;;;;4951391;28;20531;-75
2024/03/16 17:45:28;;;;;;;4.50;2.93;;;;;;;;;;4954667;28;20424;-76
2024/03/16 17:47:54;;;;;;;7.03;3.77;;;;;;;;;;4968647;28;20514;-75
2024/03/16 17:50:20;;;;;;;7.70;3.57;;;;;;;;;;4978558;28;20411;-75
2024/03/16 17:52:46;;;;;;;5.03;3.50;;;;;;;;;;4979042;28;20412;-75
2024/03/16 17:55:12;;;;;;;5.57;3.07;;;;;;;;;;4960168;28;20483;-76
2024/03/16 17:57:39;;;;;;;6.07;4.17;;;;;;;;;;4956550;28;20862;-77
2024/03/16 18:00:05;;;;;;;5.63;4.07;;;;;;;;;;4956061;28;20494;-77
2024/03/16 18:02:31;;;;;;;8.37;4.60;;;;;;;;;;4956900;28;21081;-76
2024/03/16 18:04:57;;;;;;;4.90;3.50;;;;;;;;;;4958170;28;20423;-76
2024/03/16 18:07:24;;;;;;;9.63;4.07;;;;;;;;;;4937169;29;20465;-76
2024/03/16 18:09:50;;;;;;;5.40;3.53;;;;;;;;;;4937424;29;20420;-76
2024/03/16 18:12:16;;;;;;;4.17;3.40;;;;;;;;;;4924644;29;20979;-76
2024/03/16 18:14:42;;;;;;;9.37;4.00;;;;;;;;;;4972904;23;20500;-72
2024/03/16 18:17:08;;;;;;;7.00;4.13;;;;;;;;;;4970187;28;20477;-72
2024/03/16 18:19:34;;;;;;;8.30;4.00;;;;;;;;;;4967858;28;20417;-73
2024/03/16 18:22:00;;;;;;;6.83;5.07;;;;;;;;;;4964265;28;20464;-73
2024/03/16 18:24:26;;;;;;;6.30;4.10;;;;;;;;;;4938042;29;20759;-74
2024/03/16 18:26:52;;;;;;;5.20;3.70;;;;;;;;;;4938118;29;20437;-73
2024/03/16 18:29:18;;;;;;;9.37;5.13;;;;;;;;;;4938915;29;20844;-74
2024/03/16 18:31:44;;;;;;;5.33;4.13;;;;;;;;;;4938327;29;20460;-73
2024/03/16 18:34:10;;;;;;;10.10;4.57;;;;;;;;;;4935088;29;20949;-74
2024/03/16 18:36:37;;;;;;;6.80;4.30;;;;;;;;;;4937095;29;20477;-73
2024/03/16 18:39:09;;;;;;;6.03;3.90;;;;;;;;;;4938190;29;20454;-73
2024/03/16 18:41:35;;;;;;;3.30;3.10;;;;;;;;;;4938449;29;20469;-73
2024/03/16 18:44:01;;;;;;;7.57;4.10;;;;;;;;;;4937744;29;20824;-73
2024/03/16 18:46:27;;;;;;;5.50;3.90;;;;;;;;;;4921090;29;20426;-73
2024/03/16 18:48:53;;;;;;;11.03;4.30;;;;;;;;;;4937875;29;20830;-73
2024/03/16 18:51:19;;;;;;;7.43;4.20;;;;;;;;;;4937894;29;20903;-73
2024/03/16 18:53:45;;;;;;;7.00;4.30;;;;;;;;;;4939753;29;20436;-73
2024/03/16 18:56:11;;;;;;;8.30;3.93;;;;;;;;;;4932644;29;20457;-72
2024/03/16 18:58:37;;;;;;;7.47;3.83;;;;;;;;;;4942024;29;20429;-72
2024/03/16 19:01:04;;;;;;;11.93;5.43;;;;;;;;;;4948220;29;20421;-74
2024/03/16 19:03:30;;;;;;;7.70;4.17;;;;;;;;;;4925447;29;20433;-72
2024/03/16 19:05:55;;;;;;;9.77;4.83;;;;;;;;;;4941465;29;20421;-74
2024/03/16 19:08:23;;;;;;;5.73;3.90;;;;;;;;;;4939871;29;20600;-72
2024/03/16 19:10:53;;;;;;;9.70;5.83;;;;;;;;;;4939506;29;20429;-73
2024/03/16 19:13:19;;;;;;;6.50;4.23;;;;;;;;;;4921906;29;20956;-73
2024/03/16 19:15:49;;;;;;;8.73;5.03;;;;;;;;;;4938539;29;20469;-74
2024/03/16 19:18:15;;;;;;;6.73;4.70;;;;;;;;;;4932853;29;20425;-74
2024/03/16 19:20:41;;;;;;;8.07;4.73;;;;;;;;;;4945404;29;20422;-74
2024/03/16 19:23:08;;;;;;;9.10;4.50;;;;;;;;;;4943322;29;20436;-73
2024/03/16 19:25:36;;;;;;;9.87;5.67;;;;;;;;;;4939929;29;20446;-73
2024/03/16 19:28:02;;;;;;;10.90;4.93;;;;;;;;;;4940788;29;20972;-71
2024/03/16 19:30:28;;;;;;;10.53;5.33;;;;;;;;;;4924097;29;20710;-73
2024/03/16 19:32:54;;;;;;;13.30;5.20;;;;;;;;;;4923153;29;20438;-72
2024/03/16 19:35:20;;;;;;;8.00;4.90;;;;;;;;;;4924815;29;20513;-72
2024/03/16 19:37:46;;;;;;;8.90;3.87;;;;;;;;;;4940586;29;20442;-74
2024/03/16 19:40:15;;;;;;;7.23;3.80;;;;;;;;;;4939042;29;20434;-73
2024/03/16 19:42:44;;;;;;;12.00;4.77;;;;;;;;;;4919118;29;20552;-72
2024/03/16 19:45:12;;;;;;;7.57;4.70;;;;;;;;;;4934411;29;21055;-74
2024/03/16 19:47:39;;;;;;;7.73;4.30;;;;;;;;;;4934248;29;20469;-73
2024/03/16 19:50:06;;;;;;;6.50;3.87;;;;;;;;;;4942990;29;20428;-72
2024/03/16 19:52:32;;;;;;;7.80;4.80;;;;;;;;;;4936358;29;20514;-74
2024/03/16 19:54:58;;;;;;;6.40;4.80;;;;;;;;;;4946133;29;20464;-73
2024/03/16 19:57:24;;;;;;;6.20;4.50;;;;;;;;;;4933119;29;20413;-73
2024/03/16 19:59:51;;;;;;;9.60;5.40;;;;;;;;;;4922693;29;20433;-72
2024/03/16 20:02:19;;;;;;;17.57;4.50;;;;;;;;;;4944132;29;20456;-72
2024/03/16 20:04:45;;;;;;;7.50;4.93;;;;;;;;;;4943408;29;20449;-72
2024/03/16 20:07:11;;;;;;;8.20;4.10;;;;;;;;;;4919376;29;20441;-72
2024/03/16 20:09:37;;;;;;;11.30;4.53;;;;;;;;;;4919223;29;20493;-73
2024/03/16 20:12:05;;;;;;;8.60;4.80;;;;;;;;;;4942359;29;20455;-73
2024/03/16 20:14:33;;;;;;;6.17;4.17;;;;;;;;;;4922544;29;20500;-73
2024/03/16 20:16:59;;;;;;;7.60;5.03;;;;;;;;;;4919371;29;20430;-73
2024/03/16 20:19:25;;;;;;;8.43;4.87;;;;;;;;;;4933435;29;20513;-72
2024/03/16 20:21:51;;;;;;;10.23;4.70;;;;;;;;;;4937617;29;20453;-73
2024/03/16 20:24:17;;;;;;;6.00;3.87;;;;;;;;;;4914138;29;20855;-73
2024/03/16 20:26:43;;;;;;;10.20;4.83;;;;;;;;;;4936091;29;20440;-72
2024/03/16 20:29:09;;;;;;;9.07;4.23;;;;;;;;;;4934218;29;20465;-73
2024/03/16 20:31:35;;;;;;;9.60;3.90;;;;;;;;;;4936194;29;20420;-73
2024/03/16 20:34:01;;;;;;;8.20;4.20;;;;;;;;;;4919789;29;20520;-74
2024/03/16 20:36:27;;;;;;;12.07;6.33;;;;;;;;;;4933918;29;20426;-73
2024/03/16 20:38:53;;;;;;;9.60;4.70;;;;;;;;;;4919938;29;20517;-73
2024/03/16 20:41:21;;;;;;;9.40;5.43;;;;;;;;;;4917199;29;20441;-73